56WI weather

Jaks Field
Mosinee, Wisconsin, United States

Public forecast

Using degrees Fahrenheit for public forecast. Weather courtesy of forecast.io.

Closest aviation weather report (METAR) to Jaks Field

Closest report is Central Wisconsin Airport, 3.1 nm (5.8 km) W. Retrieved 2020/02/24 21:53 UTC (36 minutes ago):

KCWA 242153Z 35004KT 10SM SCT160 04/M06 A2992

Closest aviation forecast (TAF) to Jaks Field

Closest forecast is Central Wisconsin Airport, 3.1 nm (5.8 km) W. Retrieved 2020/02/24 18:22 UTC (4 hours ago):

TAF KCWA 241720Z 2418/2518 03004KT P6SM FEW180 FM250400 04007KT P6SM BKN100 FM250900 03010KT P6SM OVC030 FM251400 03010G18KT P6SM OVC020